Time;durP1;ratioP1;P1;durP2;ratioP2;P2;SDS_P1;SDS_P2;PMS_P1;PMS_P2;Temp;Humidity;BMP_temperature;BMP_pressure;BME280_temperature;BME280_humidity;BME280_pressure;Samples;Min_cycle;Max_cycle;Signal;HPM_P1;HPM_P2
2021/12/19 00:00:53;;;;;;;11.50;5.97;;;;;;;5.39;100.00;101795.19;5084454;28;20546;-71
2021/12/19 00:03:36;;;;;;;11.17;5.33;;;;;;;5.38;100.00;101780.53;5078908;28;20796;-71
2021/12/19 00:08:49;;;;;;;13.47;5.80;;;;;;;5.38;100.00;101795.16;5095638;28;20291;-71
2021/12/19 00:11:17;;;;;;;10.00;5.10;;;;;;;5.38;100.00;101777.94;5080473;28;20344;-71
2021/12/19 00:13:45;;;;;;;12.07;5.10;;;;;;;5.40;100.00;101783.13;5093234;28;20548;-71
2021/12/19 00:16:12;;;;;;;14.43;5.17;;;;;;;5.37;100.00;101776.19;5086646;28;20198;-71
2021/12/19 00:18:42;;;;;;;10.13;5.07;;;;;;;5.36;100.00;101778.75;5093884;28;20222;-71
2021/12/19 00:21:10;;;;;;;8.07;4.47;;;;;;;5.34;100.00;101778.75;5093290;28;20820;-71
2021/12/19 00:23:37;;;;;;;6.40;4.60;;;;;;;5.32;100.00;101763.19;5088397;28;20328;-71
2021/12/19 00:26:04;;;;;;;12.67;4.50;;;;;;;5.33;100.00;101766.69;5090060;28;20201;-71
2021/12/19 00:28:30;;;;;;;8.97;4.70;;;;;;;5.36;100.00;101769.28;5094702;28;20228;-71
2021/12/19 00:30:58;;;;;;;10.10;4.57;;;;;;;5.34;100.00;101763.22;5085531;28;20224;-71
2021/12/19 00:33:25;;;;;;;12.57;4.37;;;;;;;5.31;100.00;101769.22;5087524;28;20201;-71
2021/12/19 00:35:51;;;;;;;9.13;4.57;;;;;;;5.32;100.00;101770.09;5097847;27;20197;-71
2021/12/19 00:38:17;;;;;;;7.90;3.53;;;;;;;5.34;100.00;101768.38;5094429;28;20194;-71
2021/12/19 00:40:44;;;;;;;10.90;4.33;;;;;;;5.32;100.00;101765.78;5079211;28;20220;-71
2021/12/19 00:43:22;;;;;;;8.17;3.97;;;;;;;5.32;100.00;101757.16;5081277;28;20317;-71
2021/12/19 00:45:50;;;;;;;7.83;4.10;;;;;;;5.32;100.00;101752.00;5084880;28;20554;-71
2021/12/19 00:48:18;;;;;;;7.70;4.00;;;;;;;5.29;100.00;101757.13;5075703;28;20654;-71
2021/12/19 00:50:44;;;;;;;10.20;4.17;;;;;;;5.32;100.00;101759.75;5076124;28;20226;-71
2021/12/19 00:53:12;;;;;;;5.83;3.23;;;;;;;5.33;100.00;101751.16;5081618;28;20566;-71
2021/12/19 00:55:38;;;;;;;10.93;4.60;;;;;;;5.29;100.00;101754.53;5084407;28;20198;-71
2021/12/19 00:58:05;;;;;;;8.60;3.97;;;;;;;5.28;100.00;101750.22;5091107;28;20207;-71
2021/12/19 01:00:34;;;;;;;10.37;4.07;;;;;;;5.27;100.00;101751.06;5093878;28;20214;-71
2021/12/19 01:03:02;;;;;;;7.03;3.97;;;;;;;5.29;100.00;101751.94;5085213;28;20224;-71
2021/12/19 01:05:33;;;;;;;6.50;3.47;;;;;;;5.27;100.00;101749.34;5095086;28;20251;-71
2021/12/19 01:08:00;;;;;;;7.07;3.70;;;;;;;5.28;100.00;101738.16;5080532;28;20212;-71
2021/12/19 01:10:26;;;;;;;5.60;3.70;;;;;;;5.27;100.00;101744.16;5085811;28;20257;-71
2021/12/19 01:12:53;;;;;;;10.17;4.00;;;;;;;5.28;100.00;101743.31;5086928;28;20194;-71
2021/12/19 01:15:20;;;;;;;12.73;4.10;;;;;;;5.26;100.00;101739.84;5093150;28;20193;-71
2021/12/19 01:17:47;;;;;;;8.20;3.97;;;;;;;5.27;100.00;101736.41;5089461;28;20198;-71
2021/12/19 01:20:17;;;;;;;6.80;3.50;;;;;;;5.29;100.00;101739.91;5093828;28;20678;-71
2021/12/19 01:22:46;;;;;;;6.77;3.90;;;;;;;5.30;100.00;101735.59;5091116;28;20216;-71
2021/12/19 01:25:13;;;;;;;6.30;3.67;;;;;;;5.29;100.00;101745.06;5090416;28;20789;-71
2021/12/19 01:27:40;;;;;;;7.97;3.60;;;;;;;5.27;100.00;101735.53;5086698;28;20198;-71
2021/12/19 01:30:09;;;;;;;8.37;3.47;;;;;;;5.26;100.00;101733.81;5089416;28;20217;-71
2021/12/19 01:32:35;;;;;;;9.37;4.00;;;;;;;5.28;100.00;101735.56;5097655;28;20204;-71
2021/12/19 01:35:03;;;;;;;5.97;3.50;;;;;;;5.27;100.00;101741.56;5097965;28;20202;-71
2021/12/19 01:37:29;;;;;;;7.20;4.10;;;;;;;5.29;100.00;101737.31;5089639;28;20201;-71
2021/12/19 01:39:57;;;;;;;7.23;3.57;;;;;;;5.26;100.00;101734.69;5095238;28;20224;-71
2021/12/19 01:42:30;;;;;;;6.57;3.70;;;;;;;5.25;100.00;101732.06;5094888;28;20205;-71
2021/12/19 01:44:57;;;;;;;6.20;3.83;;;;;;;5.28;100.00;101721.78;5091124;28;20198;-71
2021/12/19 01:47:23;;;;;;;8.80;3.70;;;;;;;5.29;100.00;101718.31;5087090;28;20198;-71
2021/12/19 01:49:50;;;;;;;10.13;3.93;;;;;;;5.28;100.00;101709.69;5087781;28;20221;-71
2021/12/19 01:52:16;;;;;;;8.00;4.17;;;;;;;5.27;100.00;101691.56;5086739;28;20197;-71
2021/12/19 01:54:45;;;;;;;8.50;4.00;;;;;;;5.29;100.00;101700.22;5091728;28;20194;-71
2021/12/19 01:57:13;;;;;;;6.40;4.00;;;;;;;5.33;100.00;101699.44;5091689;28;20197;-71
2021/12/19 01:59:41;;;;;;;8.87;3.90;;;;;;;5.33;100.00;101702.00;5081456;28;20217;-71
2021/12/19 02:02:07;;;;;;;9.03;3.90;;;;;;;5.34;100.00;101701.16;5088537;28;20208;-71
2021/12/19 02:04:34;;;;;;;10.90;3.67;;;;;;;5.33;100.00;101686.50;5089600;27;20232;-71
2021/12/19 02:07:02;;;;;;;9.97;3.70;;;;;;;5.31;100.00;101665.78;5078953;28;20198;-71
2021/12/19 02:09:29;;;;;;;8.20;4.20;;;;;;;5.32;100.00;101677.00;5095592;28;20842;-71
2021/12/19 02:11:55;;;;;;;5.97;3.60;;;;;;;5.31;100.00;101664.91;5101186;28;20292;-71
2021/12/19 02:14:23;;;;;;;5.63;3.53;;;;;;;5.29;100.00;101657.16;5102623;28;20308;-71
2021/12/19 02:16:49;;;;;;;11.17;3.83;;;;;;;5.32;100.00;101656.31;5095189;28;20208;-71
2021/12/19 02:19:16;;;;;;;7.07;3.63;;;;;;;5.36;100.00;101664.97;5088829;28;20201;-70
2021/12/19 02:21:43;;;;;;;7.07;3.80;;;;;;;5.37;100.00;101648.63;5087144;28;20209;-71
2021/12/19 02:24:12;;;;;;;8.73;3.50;;;;;;;5.36;100.00;101639.97;5092003;28;20208;-71
2021/12/19 02:26:39;;;;;;;9.07;3.57;;;;;;;5.34;100.00;101623.56;5093890;28;20208;-71
2021/12/19 02:29:06;;;;;;;6.00;3.00;;;;;;;5.34;100.00;101623.56;5081997;28;20207;-71
2021/12/19 02:31:32;;;;;;;6.10;2.93;;;;;;;5.38;100.00;101624.47;5089473;28;20225;-71
2021/12/19 02:34:04;;;;;;;9.37;2.93;;;;;;;5.36;100.00;101624.44;5090409;28;20212;-71
2021/12/19 02:36:46;;;;;;;6.63;2.97;;;;;;;5.40;100.00;101617.59;5091870;28;20269;-71
2021/12/19 02:39:36;;;;;;;9.67;3.13;;;;;;;5.39;100.00;101606.38;5088861;28;20208;-71
2021/12/19 02:50:19;;;;;;;8.53;2.80;;;;;;;5.37;100.00;101592.56;5101181;28;20715;-71
2021/12/19 02:52:47;;;;;;;9.53;2.77;;;;;;;5.36;100.00;101584.78;5089411;28;20272;-71
2021/12/19 02:55:17;;;;;;;6.77;2.70;;;;;;;5.38;100.00;101591.72;5094033;28;20213;-71
2021/12/19 02:57:44;;;;;;;5.23;3.27;;;;;;;5.40;100.00;101589.13;5093267;28;20670;-71
2021/12/19 03:00:13;;;;;;;6.30;2.60;;;;;;;5.41;100.00;101594.31;5096949;28;20221;-71
2021/12/19 03:02:39;;;;;;;7.53;2.83;;;;;;;5.43;100.00;101589.19;5086926;28;20206;-71
2021/12/19 03:05:07;;;;;;;5.60;2.60;;;;;;;5.43;100.00;101587.44;5100551;28;20209;-71
2021/12/19 03:07:39;;;;;;;8.90;2.90;;;;;;;5.42;100.00;101588.31;5097697;28;20211;-71
2021/12/19 03:10:28;;;;;;;5.23;2.67;;;;;;;5.43;100.00;101582.28;5093281;28;20433;-71
2021/12/19 03:13:06;;;;;;;4.47;2.20;;;;;;;5.41;100.00;101575.38;5102184;28;20206;-71
2021/12/19 03:18:17;;;;;;;4.77;2.50;;;;;;;5.40;100.00;101571.91;5098914;28;20204;-71
2021/12/19 03:20:44;;;;;;;3.73;2.20;;;;;;;5.41;100.00;101571.06;5097593;28;20225;-71
2021/12/19 03:23:13;;;;;;;7.83;2.80;;;;;;;5.43;100.00;101558.13;5093490;28;20213;-71
2021/12/19 03:25:40;;;;;;;3.63;2.53;;;;;;;5.42;100.00;101564.19;5102743;28;20202;-71
2021/12/19 03:28:09;;;;;;;5.23;2.13;;;;;;;5.42;100.00;101559.00;5096154;28;20198;-71
2021/12/19 03:30:37;;;;;;;7.97;2.40;;;;;;;5.39;100.00;101552.06;5090289;27;20221;-71
2021/12/19 03:33:04;;;;;;;8.47;2.33;;;;;;;5.40;100.00;101546.06;5087342;28;20198;-70
2021/12/19 03:35:30;;;;;;;5.40;2.50;;;;;;;5.39;100.00;101541.72;5095130;28;20200;-70
2021/12/19 03:37:58;;;;;;;5.47;2.57;;;;;;;5.39;100.00;101539.13;5092421;28;20546;-70
2021/12/19 03:40:35;;;;;;;5.37;2.30;;;;;;;5.42;100.00;101554.69;5093253;28;20252;-70
2021/12/19 03:43:04;;;;;;;6.63;2.10;;;;;;;5.40;100.00;101551.22;5096272;28;20205;-71
2021/12/19 03:45:34;;;;;;;5.70;2.33;;;;;;;5.41;100.00;101545.19;5083851;28;20202;-71
2021/12/19 03:48:00;;;;;;;4.17;2.40;;;;;;;5.43;100.00;101545.19;5088949;28;20222;-71
2021/12/19 03:50:27;;;;;;;5.33;2.40;;;;;;;5.40;100.00;101534.81;5090506;28;20642;-71
2021/12/19 03:52:55;;;;;;;5.50;2.67;;;;;;;5.35;100.00;101529.63;5086663;28;20669;-71
2021/12/19 03:55:24;;;;;;;5.07;2.70;;;;;;;5.35;100.00;101526.16;5093912;28;20198;-71
2021/12/19 03:57:51;;;;;;;9.73;2.83;;;;;;;5.36;100.00;101518.41;5090258;28;20205;-71
2021/12/19 04:00:23;;;;;;;4.53;1.97;;;;;;;5.37;100.00;101516.72;5089978;28;20225;-71
2021/12/19 04:02:52;;;;;;;4.80;2.07;;;;;;;5.35;100.00;101521.88;5089280;28;20278;-71
2021/12/19 04:05:19;;;;;;;4.87;2.33;;;;;;;5.32;100.00;101508.91;5099060;28;20217;-71
2021/12/19 04:07:45;;;;;;;6.03;2.30;;;;;;;5.31;100.00;101505.44;5093130;28;20198;-71
2021/12/19 04:10:13;;;;;;;5.50;2.10;;;;;;;5.31;100.00;101509.72;5094047;28;20217;-71
2021/12/19 04:12:39;;;;;;;6.03;2.20;;;;;;;5.32;100.00;101532.16;5095899;27;20209;-71
2021/12/19 04:15:06;;;;;;;6.80;2.80;;;;;;;5.34;100.00;101538.22;5094812;28;20300;-71
2021/12/19 04:17:34;;;;;;;7.37;2.70;;;;;;;5.34;100.00;101529.59;5089360;28;20674;-71
2021/12/19 04:20:01;;;;;;;3.10;2.30;;;;;;;5.31;100.00;101531.31;5091940;28;20229;-71
2021/12/19 04:22:28;;;;;;;5.00;2.20;;;;;;;5.29;100.00;101529.53;5093443;28;20194;-71
2021/12/19 04:24:54;;;;;;;4.07;2.63;;;;;;;5.29;100.00;101524.38;5092861;28;20230;-71
2021/12/19 04:27:21;;;;;;;3.37;2.27;;;;;;;5.27;100.00;101519.19;5094379;28;20206;-71
2021/12/19 04:29:49;;;;;;;5.93;2.20;;;;;;;5.26;100.00;101506.25;5087597;28;20324;-70
2021/12/19 04:32:17;;;;;;;7.43;2.70;;;;;;;5.26;100.00;101516.63;5098277;28;20207;-71
2021/12/19 04:34:44;;;;;;;3.63;2.50;;;;;;;5.24;100.00;101515.69;5094282;28;20655;-71
2021/12/19 04:37:31;;;;;;;5.43;2.93;;;;;;;5.20;100.00;101509.63;5089296;28;20209;-71
2021/12/19 04:40:05;;;;;;;7.73;2.83;;;;;;;5.22;100.00;101510.50;5100884;28;20270;-71
2021/12/19 04:51:14;;;;;;;4.20;2.67;;;;;;;5.21;100.00;101506.22;5094252;28;20225;-71
2021/12/19 04:53:57;;;;;;;5.27;2.70;;;;;;;5.21;100.00;101505.34;5085454;28;20197;-71
2021/12/19 04:56:38;;;;;;;3.87;2.60;;;;;;;5.19;100.00;101515.69;5095853;28;20666;-71
2021/12/19 05:02:04;;;;;;;4.87;2.67;;;;;;;5.19;100.00;101517.38;5085040;28;20424;-71
2021/12/19 05:05:17;;;;;;;6.40;2.50;;;;;;;5.20;100.00;101519.13;5087121;28;20209;-71
2021/12/19 05:15:53;;;;;;;5.23;2.40;;;;;;;5.23;100.00;101534.66;5087224;28;20213;-71
2021/12/19 05:18:23;;;;;;;6.17;2.60;;;;;;;5.23;100.00;101534.66;5089660;28;20795;-71
2021/12/19 05:20:55;;;;;;;4.57;2.67;;;;;;;5.21;100.00;101526.91;5100986;28;20233;-71
2021/12/19 05:23:27;;;;;;;4.00;2.40;;;;;;;5.21;100.00;101526.03;5080829;28;20216;-71
2021/12/19 05:25:55;;;;;;;3.80;2.70;;;;;;;5.26;100.00;101520.06;5091614;28;20723;-71
2021/12/19 05:28:21;;;;;;;3.17;2.53;;;;;;;5.31;100.00;101525.25;5084321;28;20198;-71
2021/12/19 05:30:48;;;;;;;5.50;2.40;;;;;;;5.29;100.00;101526.97;5096916;28;20225;-71
2021/12/19 05:33:15;;;;;;;4.90;2.87;;;;;;;5.28;100.00;101517.50;5081574;28;20204;-71
2021/12/19 05:36:07;;;;;;;4.10;2.70;;;;;;;5.26;100.00;101520.06;5085889;28;20198;-71
2021/12/19 05:44:15;;;;;;;5.13;2.50;;;;;;;5.29;100.00;101514.91;5095816;28;20261;-71
2021/12/19 05:46:43;;;;;;;4.53;2.67;;;;;;;5.25;100.00;101513.13;5090915;28;20202;-71
2021/12/19 05:49:10;;;;;;;4.43;2.80;;;;;;;5.27;100.00;101516.59;5077094;28;20212;-71
2021/12/19 05:51:38;;;;;;;5.07;2.43;;;;;;;5.25;100.00;101509.69;5084240;28;20205;-71
2021/12/19 05:54:09;;;;;;;8.83;3.07;;;;;;;5.23;100.00;101506.22;5082633;28;20718;-71
2021/12/19 05:56:38;;;;;;;2.77;2.10;;;;;;;5.21;100.00;101511.38;5084736;28;20259;-71
2021/12/19 05:59:04;;;;;;;3.20;2.40;;;;;;;5.19;100.00;101495.00;5090543;28;20197;-71
2021/12/19 06:01:30;;;;;;;5.93;2.83;;;;;;;5.18;100.00;101493.25;5086098;28;20220;-71
2021/12/19 06:03:57;;;;;;;5.30;2.80;;;;;;;5.16;100.00;101497.53;5086112;28;20602;-71
2021/12/19 06:06:26;;;;;;;5.00;2.73;;;;;;;5.13;100.00;101490.59;5079051;28;20567;-71
2021/12/19 06:08:52;;;;;;;6.13;2.70;;;;;;;5.11;100.00;101487.13;5095739;28;20209;-71
2021/12/19 06:11:18;;;;;;;4.37;3.13;;;;;;;5.08;100.00;101483.66;5088798;28;20226;-71
2021/12/19 06:13:46;;;;;;;4.33;2.33;;;;;;;5.02;100.00;101466.38;5090432;28;20602;-71
2021/12/19 06:16:13;;;;;;;4.53;2.57;;;;;;;5.01;100.00;101474.97;5087288;28;20194;-71
2021/12/19 06:18:39;;;;;;;4.23;2.70;;;;;;;5.00;100.00;101473.25;5092313;28;20591;-71
2021/12/19 06:21:06;;;;;;;5.83;2.70;;;;;;;4.97;100.00;101470.63;5085868;28;20229;-71
2021/12/19 06:23:33;;;;;;;6.60;3.20;;;;;;;4.95;100.00;101462.00;5091692;28;20205;-71
2021/12/19 06:25:59;;;;;;;3.63;2.50;;;;;;;4.91;100.00;101461.09;5086779;28;20233;-71
2021/12/19 06:28:26;;;;;;;5.53;2.80;;;;;;;4.90;100.00;101466.25;5092228;28;20578;-71
2021/12/19 06:30:54;;;;;;;5.57;2.60;;;;;;;4.87;100.00;101453.28;5088797;28;20580;-71
2021/12/19 06:33:20;;;;;;;4.30;2.50;;;;;;;4.85;100.00;101458.44;5094183;28;20206;-71
2021/12/19 06:35:46;;;;;;;5.43;2.70;;;;;;;4.84;100.00;101464.47;5082508;28;20195;-71
2021/12/19 06:38:15;;;;;;;3.90;2.87;;;;;;;4.83;100.00;101457.56;5085495;28;20194;-71
2021/12/19 06:40:42;;;;;;;3.63;2.50;;;;;;;4.83;100.00;101472.19;5081611;28;20214;-71
2021/12/19 06:43:08;;;;;;;3.27;2.50;;;;;;;4.82;100.00;101455.84;5079669;28;20825;-71
2021/12/19 06:45:34;;;;;;;4.63;3.03;;;;;;;4.79;100.00;101440.28;5092621;28;20585;-71
2021/12/19 06:48:02;;;;;;;4.60;2.60;;;;;;;4.80;100.00;101441.16;5080648;28;20210;-71
2021/12/19 06:50:29;;;;;;;4.07;2.63;;;;;;;4.79;100.00;101448.03;5082014;28;20226;-70
2021/12/19 06:52:56;;;;;;;5.03;2.40;;;;;;;4.78;100.00;101451.47;5088591;28;20211;-70
2021/12/19 06:55:23;;;;;;;4.30;2.70;;;;;;;4.78;100.00;101454.06;5083951;28;20209;-70
2021/12/19 06:57:49;;;;;;;4.40;3.17;;;;;;;4.77;100.00;101443.69;5085590;28;20194;-70
2021/12/19 07:00:18;;;;;;;5.63;2.90;;;;;;;4.73;100.00;101438.53;5090244;28;20225;-70
2021/12/19 07:02:45;;;;;;;5.00;2.80;;;;;;;4.71;100.00;101437.66;5084490;28;20242;-70
2021/12/19 07:05:12;;;;;;;4.67;3.00;;;;;;;4.71;100.00;101437.66;5080456;28;20227;-70
2021/12/19 07:07:39;;;;;;;3.90;2.50;;;;;;;4.71;100.00;101447.09;5087972;28;20194;-71
2021/12/19 07:10:08;;;;;;;7.07;3.00;;;;;;;4.71;100.00;101447.09;5081896;28;20227;-71
2021/12/19 07:12:35;;;;;;;8.70;3.80;;;;;;;4.70;100.00;101440.19;5087960;28;20210;-70
2021/12/19 07:15:01;;;;;;;7.27;3.73;;;;;;;4.73;100.00;101435.03;5081637;28;20202;-70
2021/12/19 07:17:28;;;;;;;5.77;3.07;;;;;;;4.73;100.00;101432.47;5079496;28;20198;-71
2021/12/19 07:19:54;;;;;;;4.20;3.00;;;;;;;4.72;100.00;101426.44;5092364;28;20228;-71
2021/12/19 07:22:22;;;;;;;7.07;2.80;;;;;;;4.73;100.00;101422.13;5080625;28;20206;-70
2021/12/19 07:24:48;;;;;;;7.63;4.47;;;;;;;4.70;100.00;101425.56;5076155;28;20215;-71
2021/12/19 07:27:15;;;;;;;5.40;3.83;;;;;;;4.68;100.00;101419.50;5081146;28;20205;-71
2021/12/19 07:29:42;;;;;;;6.00;3.27;;;;;;;4.67;100.00;101417.78;5088856;28;20288;-71
2021/12/19 07:32:10;;;;;;;6.60;3.20;;;;;;;4.67;100.00;101414.31;5086562;28;20193;-71
2021/12/19 07:34:38;;;;;;;8.77;3.60;;;;;;;4.66;100.00;101415.16;5090814;28;20274;-71
2021/12/19 07:37:05;;;;;;;5.40;3.10;;;;;;;4.64;100.00;101407.41;5091170;28;20262;-71
2021/12/19 07:39:41;;;;;;;5.60;3.70;;;;;;;4.64;100.00;101402.22;5097660;28;20277;-71
2021/12/19 07:42:10;;;;;;;4.37;3.10;;;;;;;4.66;100.00;101410.00;5082436;28;20222;-71
2021/12/19 07:44:38;;;;;;;9.17;3.20;;;;;;;4.67;100.00;101396.25;5085067;28;20552;-71
2021/12/19 07:47:07;;;;;;;8.07;3.60;;;;;;;4.67;100.00;101396.25;5100083;28;20208;-70
2021/12/19 07:49:33;;;;;;;9.33;3.70;;;;;;;4.68;100.00;101385.06;5091861;28;20601;-70
2021/12/19 07:52:00;;;;;;;6.30;3.60;;;;;;;4.72;100.00;101392.00;5089233;28;20194;-71
2021/12/19 07:54:27;;;;;;;6.03;3.37;;;;;;;4.72;100.00;101385.09;5091005;28;20186;-71
2021/12/19 07:56:54;;;;;;;5.77;3.13;;;;;;;4.72;100.00;101381.66;5091873;28;20194;-71
2021/12/19 07:59:21;;;;;;;6.63;2.67;;;;;;;4.73;100.00;101385.97;5099565;28;20198;-70
2021/12/19 08:01:48;;;;;;;5.80;3.20;;;;;;;4.73;100.00;101381.69;5098693;28;20193;-70
2021/12/19 08:04:15;;;;;;;8.33;3.40;;;;;;;4.72;100.00;101389.41;5094877;28;20201;-70
2021/12/19 08:06:41;;;;;;;6.57;3.10;;;;;;;4.72;100.00;101372.19;5094333;28;20205;-71
2021/12/19 08:09:09;;;;;;;6.30;3.20;;;;;;;4.71;100.00;101369.59;5090864;28;20283;-71
2021/12/19 08:11:42;;;;;;;11.93;5.27;;;;;;;4.73;100.00;101373.03;5093594;28;20239;-71
2021/12/19 08:14:12;;;;;;;7.17;3.53;;;;;;;4.72;100.00;101368.75;5091021;28;20207;-71
2021/12/19 08:16:39;;;;;;;6.70;3.53;;;;;;;4.73;100.00;101368.75;5092841;28;20208;-71
2021/12/19 08:19:06;;;;;;;4.50;3.10;;;;;;;4.76;100.00;101367.91;5094092;28;20198;-71
2021/12/19 08:21:33;;;;;;;10.00;5.70;;;;;;;4.74;100.00;101367.91;5096580;28;20281;-71
2021/12/19 08:24:01;;;;;;;5.00;3.60;;;;;;;4.74;100.00;101354.13;5089172;28;20202;-71
2021/12/19 08:26:28;;;;;;;10.07;7.60;;;;;;;4.76;100.00;101360.16;5095577;28;20214;-71
2021/12/19 08:28:54;;;;;;;14.00;6.07;;;;;;;4.77;100.00;101358.44;5091426;28;20684;-71
2021/12/19 08:31:23;;;;;;;8.83;4.50;;;;;;;4.76;100.00;101360.16;5085314;27;20222;-71
2021/12/19 08:33:50;;;;;;;4.70;3.00;;;;;;;4.78;100.00;101355.88;5092703;28;20202;-71
2021/12/19 08:36:16;;;;;;;6.63;3.70;;;;;;;4.78;100.00;101355.88;5085360;28;20194;-70
2021/12/19 08:38:42;;;;;;;7.23;3.57;;;;;;;4.80;100.00;101343.84;5085560;28;20202;-71
2021/12/19 08:41:09;;;;;;;13.23;4.37;;;;;;;4.82;100.00;101356.75;5080663;28;20236;-71
2021/12/19 08:43:35;;;;;;;9.03;3.40;;;;;;;4.83;100.00;101343.00;5090682;28;20256;-71
2021/12/19 08:46:02;;;;;;;4.33;2.80;;;;;;;4.86;100.00;101348.22;5093605;28;20217;-71
2021/12/19 08:48:30;;;;;;;8.40;3.10;;;;;;;4.89;100.00;101350.78;5089815;28;20713;-71
2021/12/19 08:50:56;;;;;;;8.70;3.13;;;;;;;4.91;100.00;101347.38;5088047;28;20227;-70
2021/12/19 08:53:22;;;;;;;4.93;2.83;;;;;;;4.91;100.00;101349.97;5088852;28;20205;-71
2021/12/19 08:55:49;;;;;;;8.77;3.37;;;;;;;4.92;100.00;101343.06;5081444;28;20209;-70
2021/12/19 08:58:15;;;;;;;8.23;3.23;;;;;;;4.93;100.00;101337.06;5090330;28;20212;-70
2021/12/19 09:00:42;;;;;;;7.00;3.60;;;;;;;4.93;100.00;101334.47;5080885;28;20221;-71
2021/12/19 09:03:09;;;;;;;7.90;3.70;;;;;;;4.90;100.00;101332.72;5080093;28;20200;-71
2021/12/19 09:05:37;;;;;;;3.80;3.20;;;;;;;4.87;100.00;101326.66;5083603;28;20211;-71
2021/12/19 09:08:04;;;;;;;8.47;4.33;;;;;;;4.85;100.00;101334.41;5086430;28;20194;-71
2021/12/19 09:10:31;;;;;;;5.73;3.37;;;;;;;4.86;100.00;101330.13;5085621;28;20225;-71
2021/12/19 09:12:57;;;;;;;5.97;4.50;;;;;;;4.86;100.00;101325.81;5092631;28;20216;-71
2021/12/19 09:15:24;;;;;;;7.20;3.87;;;;;;;4.86;100.00;101324.94;5088209;28;20573;-70
2021/12/19 09:17:50;;;;;;;6.77;3.50;;;;;;;4.87;100.00;101327.56;5084119;28;20202;-70
2021/12/19 09:20:17;;;;;;;8.90;3.60;;;;;;;4.88;100.00;101326.69;5093899;28;20213;-71
2021/12/19 09:22:45;;;;;;;5.73;3.27;;;;;;;4.90;100.00;101319.81;5084544;28;20649;-71
2021/12/19 09:25:12;;;;;;;3.73;2.57;;;;;;;4.93;100.00;101317.25;5086175;28;20209;-71
2021/12/19 09:27:39;;;;;;;4.67;2.87;;;;;;;4.94;100.00;101320.69;5082328;28;20202;-71
2021/12/19 09:30:06;;;;;;;6.50;2.60;;;;;;;4.95;100.00;101319.84;5084179;28;20233;-71
2021/12/19 09:32:33;;;;;;;4.90;2.73;;;;;;;4.96;100.00;101321.59;5089431;28;20664;-71
2021/12/19 09:34:59;;;;;;;5.53;3.50;;;;;;;4.98;100.00;101334.50;5091822;28;20684;-71
2021/12/19 09:37:27;;;;;;;4.03;2.63;;;;;;;5.00;100.00;101340.56;5092342;28;20197;-71
2021/12/19 09:39:55;;;;;;;3.60;2.60;;;;;;;5.03;100.00;101341.47;5087879;28;20222;-71
2021/12/19 09:42:32;;;;;;;8.10;2.97;;;;;;;5.07;100.00;101327.69;5082749;28;20194;-71
2021/12/19 09:45:01;;;;;;;6.37;3.27;;;;;;;5.08;100.00;101315.63;5092510;28;20217;-71
2021/12/19 09:47:27;;;;;;;4.13;2.90;;;;;;;5.07;100.00;101311.34;5079536;28;20207;-71
2021/12/19 09:49:54;;;;;;;9.00;3.90;;;;;;;5.07;100.00;101307.03;5081816;28;20222;-71
2021/12/19 09:52:21;;;;;;;8.77;3.40;;;;;;;5.07;100.00;101307.03;5086797;28;20569;-71
2021/12/19 09:54:47;;;;;;;8.20;2.97;;;;;;;5.07;100.00;101299.28;5088767;28;20543;-71
2021/12/19 09:57:15;;;;;;;5.73;2.73;;;;;;;5.05;100.00;101294.97;5074445;28;20571;-71
2021/12/19 09:59:43;;;;;;;6.77;3.07;;;;;;;5.06;100.00;101302.69;5074351;28;20217;-71
2021/12/19 10:02:09;;;;;;;5.00;3.07;;;;;;;5.04;100.00;101303.56;5082286;28;20194;-71
2021/12/19 10:04:38;;;;;;;5.17;2.70;;;;;;;5.03;100.00;101304.41;5071737;28;20198;-71
2021/12/19 10:07:08;;;;;;;5.97;2.93;;;;;;;5.00;100.00;101292.31;5080898;28;20217;-71
2021/12/19 10:09:38;;;;;;;6.53;2.83;;;;;;;5.01;100.00;101285.44;5084872;28;20229;-71
2021/12/19 10:12:24;;;;;;;4.97;2.63;;;;;;;5.01;100.00;101280.25;5094435;28;20283;-71
2021/12/19 10:14:53;;;;;;;5.97;2.10;;;;;;;5.08;100.00;101287.19;5090656;28;20201;-71
2021/12/19 10:17:20;;;;;;;4.17;2.17;;;;;;;5.09;100.00;101274.28;5084463;28;20523;-71
2021/12/19 10:19:49;;;;;;;2.67;1.87;;;;;;;5.15;100.00;101290.69;5083385;28;20217;-71
2021/12/19 10:22:38;;;;;;;2.57;1.53;;;;;;;5.20;100.00;101299.34;5089384;28;20197;-71
2021/12/19 10:25:20;;;;;;;3.70;1.47;;;;;;;5.28;100.00;101306.31;5083294;28;20662;-71
2021/12/19 10:27:49;;;;;;;3.00;1.70;;;;;;;5.30;100.00;101276.16;5087882;28;20210;-71
2021/12/19 10:30:26;;;;;;;2.80;1.40;;;;;;;5.34;100.00;101281.34;5075178;28;20229;-71
2021/12/19 10:32:55;;;;;;;3.50;1.70;;;;;;;5.31;100.00;101277.91;5076461;28;20197;-71
2021/12/19 10:35:24;;;;;;;4.53;1.70;;;;;;;5.31;100.00;101271.84;5082788;28;20244;-71
2021/12/19 10:37:50;;;;;;;2.03;1.80;;;;;;;5.28;100.00;101275.28;5074803;28;20209;-71
2021/12/19 10:40:17;;;;;;;3.40;1.93;;;;;;;5.26;100.00;101271.81;5081084;28;20225;-71
2021/12/19 10:42:49;;;;;;;3.90;2.53;;;;;;;5.19;100.00;101270.06;5083190;28;20681;-71
2021/12/19 10:45:32;;;;;;;4.57;2.30;;;;;;;5.13;100.00;101250.19;5102519;28;20708;-71
2021/12/19 10:48:21;;;;;;;5.40;3.03;;;;;;;5.06;100.00;101251.00;5085301;28;20236;-71
2021/12/19 10:50:50;;;;;;;4.70;2.47;;;;;;;5.00;100.00;101248.38;5085524;28;20320;-71
2021/12/19 10:53:18;;;;;;;5.83;2.40;;;;;;;4.91;100.00;101238.84;5077854;28;20204;-70
2021/12/19 10:55:46;;;;;;;7.40;2.60;;;;;;;4.90;100.00;101226.78;5087725;28;21793;-70
2021/12/19 10:58:28;;;;;;;4.33;2.40;;;;;;;4.91;100.00;101236.28;5084626;28;20206;-71
2021/12/19 11:00:58;;;;;;;3.00;2.20;;;;;;;4.88;100.00;101251.75;5082904;28;20208;-71
2021/12/19 11:03:40;;;;;;;5.17;2.17;;;;;;;4.85;100.00;101233.63;5077790;28;20771;-71
2021/12/19 11:06:18;;;;;;;5.40;3.20;;;;;;;4.87;100.00;101218.13;5093419;28;20208;-71
2021/12/19 11:08:45;;;;;;;4.83;2.40;;;;;;;4.86;100.00;101219.88;5084339;28;20190;-70
2021/12/19 11:11:12;;;;;;;3.87;2.17;;;;;;;4.86;100.00;101227.63;5075899;28;20218;-71
2021/12/19 11:13:39;;;;;;;3.97;1.87;;;;;;;4.85;100.00;101222.44;5081167;28;20205;-70
2021/12/19 11:16:06;;;;;;;2.63;1.50;;;;;;;4.84;100.00;101203.50;5076120;28;20272;-70
2021/12/19 11:18:33;;;;;;;3.10;1.53;;;;;;;4.86;100.00;101199.19;5086826;28;20213;-70
2021/12/19 11:21:00;;;;;;;2.30;1.60;;;;;;;4.86;100.00;101196.59;5090968;28;20240;-70
2021/12/19 11:23:27;;;;;;;1.80;1.40;;;;;;;4.84;100.00;101188.00;5085114;28;20678;-70
2021/12/19 11:25:54;;;;;;;2.93;1.67;;;;;;;4.83;100.00;101186.25;5082133;28;20260;-70
2021/12/19 11:28:21;;;;;;;2.90;1.40;;;;;;;4.83;100.00;101178.50;5083062;28;20636;-70
2021/12/19 11:30:48;;;;;;;1.80;1.37;;;;;;;4.80;100.00;101172.44;5090678;28;20326;-71
2021/12/19 11:33:25;;;;;;;1.57;1.30;;;;;;;4.80;100.00;101175.03;5089984;28;20206;-71
2021/12/19 11:35:56;;;;;;;1.97;1.30;;;;;;;4.78;100.00;101182.75;5094550;28;20197;-71
2021/12/19 11:38:25;;;;;;;1.80;1.40;;;;;;;4.82;100.00;101173.31;5096224;28;20206;-70
2021/12/19 11:40:52;;;;;;;2.23;1.70;;;;;;;4.77;100.00;101180.16;5089414;28;20239;-71
2021/12/19 11:43:19;;;;;;;1.93;1.33;;;;;;;4.76;100.00;101171.56;5082640;28;20648;-71
2021/12/19 11:45:59;;;;;;;2.10;1.67;;;;;;;4.77;100.00;101164.66;5090978;28;20210;-70
2021/12/19 11:48:30;;;;;;;2.70;1.67;;;;;;;4.71;100.00;101156.06;5076581;28;20214;-70
2021/12/19 11:50:59;;;;;;;2.00;1.53;;;;;;;4.68;100.00;101147.41;5094018;28;20638;-70
2021/12/19 11:53:30;;;;;;;2.00;1.50;;;;;;;4.68;100.00;101162.91;5092638;28;20216;-70
2021/12/19 11:56:06;;;;;;;3.67;1.40;;;;;;;4.66;100.00;101159.44;5079565;28;20198;-70
2021/12/19 11:58:42;;;;;;;2.73;1.60;;;;;;;4.64;100.00;101154.25;5076774;28;20214;-71
2021/12/19 12:01:11;;;;;;;2.93;1.57;;;;;;;4.62;100.00;101155.09;5083959;28;20221;-71
2021/12/19 12:03:49;;;;;;;1.70;1.60;;;;;;;4.62;100.00;101153.38;5086587;28;20205;-71
2021/12/19 12:06:29;;;;;;;4.07;1.67;;;;;;;4.61;100.00;101140.47;5089258;28;20204;-71
2021/12/19 12:09:21;;;;;;;4.87;2.53;;;;;;;4.62;100.00;101142.19;5087397;28;20242;-71
2021/12/19 12:12:23;;;;;;;4.13;2.60;;;;;;;4.63;100.00;101124.13;5094743;28;20220;-70